Duas Estrelas — CUFP4 — position and weather

sailwx.info

Track history (hours):
 
Tides and Currents Weather Stations Pressure Air Temp Water Temp Dewpoint Dewpoint Depression Visibility Wind Speed Wind Dir Waves Ship Positions

Duas Estrelas

Last reported at 2017-Nov-07 10:36 UTC. Time now 2017-Nov-24 20:45 UTC.
Position N 41°12' W 008°44'.
Warning: this ship's position is 17 days out of date.

Length 22 m.

Type: Fishing. MMSI: 263414590.

Date/timePositionNaut miles runAvg speedWind from/ knotsBaromVisibWave heightAir tempDewpointWater temp
2017-Nov-07 10:36N 41°12' W 008°44'1 9.4
2017-Nov-07 10:30N 41°12' W 008°43'1 2.4
2017-Nov-07 10:00N 41°11' W 008°42'0 0.0
2017-Nov-07 09:30N 41°11' W 008°42'0 0.0
2017-Nov-07 09:00N 41°11' W 008°42'0 0.0
2017-Nov-07 08:30N 41°11' W 008°42'0 0.0
2017-Nov-07 08:01N 41°11' W 008°42'0 0.0
2017-Nov-07 07:30N 41°11' W 008°42'0 0.8
2017-Nov-07 07:00N 41°11' W 008°42'3 0.1
2017-Nov-06 00:09N 41°07' W 008°43'210.1
2017-Nov-06 00:00N 41°09' W 008°42'2 4.5
2017-Nov-05 23:30N 41°11' W 008°42'0 0.0
2017-Nov-05 00:23N 41°11' W 008°42'0 0.0
2017-Nov-05 00:01N 41°11' W 008°42'0 0.0
2017-Nov-03 15:29N 41°11' W 008°42'0 0.0
2017-Nov-03 11:52N 41°11' W 008°42'0 0.0
2017-Nov-03 11:30N 41°11' W 008°42'0 0.0
2017-Nov-03 11:00N 41°11' W 008°42'0 0.0
2017-Nov-03 10:30N 41°11' W 008°42'0 0.0
2017-Nov-03 10:00N 41°11' W 008°42'0 0.0
2017-Nov-03 09:30N 41°11' W 008°42'3 0.2
2017-Nov-02 22:07N 41°08' W 008°43'1 9.1
2017-Nov-02 22:00N 41°09' W 008°43'2 0.1
2017-Nov-02 09:47N 41°11' W 008°42'0 0.0
2017-Nov-02 09:31N 41°11' W 008°42'0 0.0
2017-Nov-02 09:01N 41°11' W 008°42'0 0.0
2017-Nov-02 08:31N 41°11' W 008°42'0 0.0
2017-Nov-02 08:01N 41°11' W 008°42'0 0.0
2017-Nov-02 07:31N 41°11' W 008°42'4 8.7
2017-Nov-02 07:00N 41°07' W 008°43'4 0.1
2017-Oct-31 10:54N 41°11' W 008°42'0 0.3
2017-Oct-31 10:30N 41°11' W 008°42'0 0.3
2017-Oct-31 10:00N 41°11' W 008°42'0 0.2
2017-Oct-31 09:30N 41°11' W 008°42'0 0.3
2017-Oct-31 09:00N 41°11' W 008°42'0 0.0
2017-Oct-31 08:30N 41°11' W 008°42'0 0.0
2017-Oct-31 08:00N 41°11' W 008°42'2 4.9
2017-Oct-31 07:30N 41°09' W 008°42'  
Track history (hours):
 
Tides and Currents Weather Stations Pressure Air Temp Water Temp Dewpoint Dewpoint Depression Visibility Wind Speed Wind Dir Waves Ship Positions

Duas Estrelas

Last reported at 2017-Nov-07 10:36 UTC. Time now 2017-Nov-24 20:45 UTC.
Position N 41°12' W 008°44'.
Warning: this ship's position is 17 days out of date.

Length 22 m.

Type: Fishing. MMSI: 263414590.

Date/timePositionNaut miles runAvg speedWind from/ knotsBaromVisibWave heightAir tempDewpointWater temp
2017-Nov-07 10:36N 41°12' W 008°44'1 9.4
2017-Nov-07 10:30N 41°12' W 008°43'1 2.4
2017-Nov-07 10:00N 41°11' W 008°42'0 0.0
2017-Nov-07 09:30N 41°11' W 008°42'0 0.0
2017-Nov-07 09:00N 41°11' W 008°42'0 0.0
2017-Nov-07 08:30N 41°11' W 008°42'0 0.0
2017-Nov-07 08:01N 41°11' W 008°42'0 0.0
2017-Nov-07 07:30N 41°11' W 008°42'0 0.8
2017-Nov-07 07:00N 41°11' W 008°42'3 0.1
2017-Nov-06 00:09N 41°07' W 008°43'210.1
2017-Nov-06 00:00N 41°09' W 008°42'2 4.5
2017-Nov-05 23:30N 41°11' W 008°42'0 0.0
2017-Nov-05 00:23N 41°11' W 008°42'0 0.0
2017-Nov-05 00:01N 41°11' W 008°42'0 0.0
2017-Nov-03 15:29N 41°11' W 008°42'0 0.0
2017-Nov-03 11:52N 41°11' W 008°42'0 0.0
2017-Nov-03 11:30N 41°11' W 008°42'0 0.0
2017-Nov-03 11:00N 41°11' W 008°42'0 0.0
2017-Nov-03 10:30N 41°11' W 008°42'0 0.0
2017-Nov-03 10:00N 41°11' W 008°42'0 0.0
2017-Nov-03 09:30N 41°11' W 008°42'3 0.2
2017-Nov-02 22:07N 41°08' W 008°43'1 9.1
2017-Nov-02 22:00N 41°09' W 008°43'2 0.1
2017-Nov-02 09:47N 41°11' W 008°42'0 0.0
2017-Nov-02 09:31N 41°11' W 008°42'0 0.0
2017-Nov-02 09:01N 41°11' W 008°42'0 0.0
2017-Nov-02 08:31N 41°11' W 008°42'0 0.0
2017-Nov-02 08:01N 41°11' W 008°42'0 0.0
2017-Nov-02 07:31N 41°11' W 008°42'4 8.7
2017-Nov-02 07:00N 41°07' W 008°43'4 0.1
2017-Oct-31 10:54N 41°11' W 008°42'0 0.3
2017-Oct-31 10:30N 41°11' W 008°42'0 0.3
2017-Oct-31 10:00N 41°11' W 008°42'0 0.2
2017-Oct-31 09:30N 41°11' W 008°42'0 0.3
2017-Oct-31 09:00N 41°11' W 008°42'0 0.0
2017-Oct-31 08:30N 41°11' W 008°42'0 0.0
2017-Oct-31 08:00N 41°11' W 008°42'2 4.9
2017-Oct-31 07:30N 41°09' W 008°42'  

Dump ship's entire track history